createdAt,value
2018-11-26T00:00:58.202Z,94319.84
2018-11-26T00:03:24.853Z,94322.63
2018-11-26T00:05:51.495Z,94328.72
2018-11-26T00:08:18.150Z,94324.28
2018-11-26T00:10:44.783Z,94315.83
2018-11-26T00:13:11.434Z,94310.74
2018-11-26T00:15:38.183Z,94313.72
2018-11-26T00:18:04.813Z,94315.75
2018-11-26T00:20:31.458Z,94296.06
2018-11-26T00:22:58.096Z,94304.80
2018-11-26T00:25:24.728Z,94295.98
2018-11-26T00:27:51.371Z,94285.59
2018-11-26T00:30:19.265Z,94302.02
2018-11-26T00:32:44.665Z,94301.84
2018-11-26T00:35:11.312Z,94305.72
2018-11-26T00:37:37.943Z,94305.55
2018-11-26T00:40:04.610Z,94296.65
2018-11-26T00:42:31.254Z,94298.12
2018-11-26T00:44:57.895Z,94292.28
2018-11-26T00:47:24.531Z,94289.02
2018-11-26T00:49:51.171Z,94268.99
2018-11-26T00:52:17.816Z,94286.98
2018-11-26T00:54:44.457Z,94269.66
2018-11-26T00:57:11.094Z,94257.03
2018-11-26T00:59:37.723Z,94236.91
2018-11-26T01:02:04.372Z,94231.70
2018-11-26T01:04:31.028Z,94222.73
2018-11-26T01:06:57.665Z,94223.75
2018-11-26T01:09:24.305Z,94218.83
2018-11-26T01:11:50.943Z,94204.00
2018-11-26T01:14:17.589Z,94217.16
2018-11-26T01:16:44.227Z,94187.13
2018-11-26T01:19:10.870Z,94192.22
2018-11-26T01:21:37.516Z,94169.69
2018-11-26T01:24:04.159Z,94173.59
2018-11-26T01:26:30.792Z,94171.88
2018-11-26T01:28:57.444Z,94159.67
2018-11-26T01:31:24.099Z,94155.57
2018-11-26T01:33:50.726Z,94139.45
2018-11-26T01:36:17.388Z,94134.80
2018-11-26T01:38:44.027Z,94113.56
2018-11-26T01:41:10.677Z,94084.63
2018-11-26T01:43:37.315Z,94087.71
2018-11-26T01:46:03.956Z,94067.58
2018-11-26T01:48:30.601Z,94060.72
2018-11-26T01:50:57.257Z,94056.56
2018-11-26T01:53:23.910Z,94042.38
2018-11-26T01:55:50.553Z,94031.99
2018-11-26T01:58:17.193Z,94043.87
2018-11-26T02:00:43.832Z,94039.32
2018-11-26T02:03:10.470Z,94028.56
2018-11-26T02:05:37.124Z,94023.38
2018-11-26T02:08:03.774Z,94015.30
2018-11-26T02:10:30.413Z,94014.02
2018-11-26T02:12:57.151Z,94018.84
2018-11-26T02:15:23.791Z,94014.29
2018-11-26T02:17:50.425Z,94018.37
2018-11-26T02:20:17.119Z,94014.47
2018-11-26T02:22:43.712Z,94013.64
2018-11-26T02:25:10.347Z,94008.73
2018-11-26T02:27:37.001Z,94012.70
2018-11-26T02:30:03.661Z,94025.86
2018-11-26T02:32:30.298Z,94012.90
2018-11-26T02:34:56.934Z,94005.84
2018-11-26T02:37:23.579Z,94015.11
2018-11-26T02:39:50.210Z,94014.02
2018-11-26T02:42:16.860Z,94025.87
2018-11-26T02:44:43.503Z,94002.22
2018-11-26T02:47:10.149Z,94029.66
2018-11-26T02:49:36.889Z,94005.67
2018-11-26T02:52:03.554Z,94036.81
2018-11-26T02:54:30.193Z,94015.11
2018-11-26T02:56:56.830Z,93997.67
2018-11-26T02:59:23.476Z,94015.03
2018-11-26T03:01:50.116Z,94020.97
2018-11-26T03:04:16.764Z,94003.98
2018-11-26T03:06:43.399Z,94006.86
2018-11-26T03:09:10.049Z,94023.45
2018-11-26T03:11:36.695Z,94024.47
2018-11-26T03:14:03.345Z,94050.16
2018-11-26T03:16:29.994Z,94004.17
2018-11-26T03:18:56.631Z,94059.06
2018-11-26T03:21:23.269Z,94023.75
2018-11-26T03:23:49.917Z,94069.27
2018-11-26T03:26:16.553Z,94049.42
2018-11-26T03:28:43.191Z,94020.12
2018-11-26T03:31:09.823Z,94039.04
2018-11-26T03:33:36.457Z,94030.97
2018-11-26T03:36:03.109Z,93993.70
2018-11-26T03:38:29.799Z,94019.48
2018-11-26T03:40:56.442Z,93981.92
2018-11-26T03:43:23.132Z,94018.92
2018-11-26T03:45:49.771Z,93998.14
2018-11-26T03:48:16.408Z,94004.28
2018-11-26T03:50:43.047Z,94010.28
2018-11-26T03:53:09.697Z,94013.06
2018-11-26T03:55:36.341Z,93981.72
2018-11-26T03:58:03.040Z,93985.19
2018-11-26T04:00:29.680Z,93970.33
2018-11-26T04:02:56.320Z,93963.95
2018-11-26T04:05:22.973Z,93993.88
2018-11-26T04:07:49.658Z,93993.06
2018-11-26T04:10:16.297Z,93974.67
2018-11-26T04:12:42.934Z,93999.64
2018-11-26T04:15:09.622Z,93961.31
2018-11-26T04:17:36.290Z,93967.55
2018-11-26T04:20:02.918Z,93969.56
2018-11-26T04:22:29.555Z,93972.52
2018-11-26T04:24:56.192Z,93889.44
2018-11-26T04:27:22.834Z,93975.66
2018-11-26T04:29:49.472Z,93933.05
2018-11-26T04:32:16.180Z,93910.55
2018-11-26T04:34:42.843Z,93930.39
2018-11-26T04:37:09.583Z,93911.23
2018-11-26T04:39:36.285Z,93933.48
2018-11-26T04:42:02.920Z,93912.70
2018-11-26T04:44:29.559Z,93930.34
2018-11-26T04:46:56.205Z,93942.95
2018-11-26T04:49:22.849Z,93939.78
2018-11-26T04:51:49.484Z,93930.17
2018-11-26T04:54:16.132Z,93924.94
2018-11-26T04:56:42.771Z,93952.39
2018-11-26T04:59:09.463Z,93947.80
2018-11-26T05:01:36.095Z,93935.30
2018-11-26T05:04:02.734Z,93944.54
2018-11-26T05:06:29.386Z,93922.45
2018-11-26T05:08:56.076Z,93905.42
2018-11-26T05:11:22.716Z,93925.53
2018-11-26T05:13:49.362Z,93918.70
2018-11-26T05:16:16.003Z,93938.16
2018-11-26T05:18:42.705Z,93938.44
2018-11-26T05:21:09.347Z,93941.22
2018-11-26T05:23:35.975Z,93933.42
2018-11-26T05:26:02.627Z,93918.34
2018-11-26T05:28:29.275Z,93921.22
2018-11-26T05:30:55.921Z,93909.07
2018-11-26T05:33:22.556Z,93902.47
2018-11-26T05:35:49.224Z,93911.66
2018-11-26T05:38:15.841Z,93905.17
2018-11-26T05:40:42.484Z,93910.91
2018-11-26T05:43:09.120Z,93919.42
2018-11-26T05:45:35.773Z,93898.66
2018-11-26T05:48:02.487Z,93898.02
2018-11-26T05:50:29.119Z,93898.02
2018-11-26T05:52:55.761Z,93909.23
2018-11-26T05:55:22.414Z,93882.07
2018-11-26T05:57:49.049Z,93933.53
2018-11-26T06:00:15.746Z,93912.50
2018-11-26T06:02:42.390Z,93894.05
2018-11-26T06:05:09.031Z,93927.59
2018-11-26T06:07:35.685Z,93891.61
2018-11-26T06:10:02.337Z,93912.03
2018-11-26T06:12:28.988Z,93914.60
2018-11-26T06:14:55.628Z,93902.28
2018-11-26T06:17:22.323Z,93914.59
2018-11-26T06:19:49.013Z,93915.52
2018-11-26T06:22:15.661Z,93908.30
2018-11-26T06:24:42.315Z,93922.31
2018-11-26T06:27:08.960Z,93920.55
2018-11-26T06:29:35.629Z,93904.42
2018-11-26T06:32:02.268Z,93890.59
2018-11-26T06:34:28.975Z,93909.78
2018-11-26T06:36:55.613Z,93913.94
2018-11-26T06:39:22.261Z,93913.48
2018-11-26T06:41:48.941Z,93903.64
2018-11-26T06:44:15.580Z,93888.81
2018-11-26T06:46:42.231Z,93887.69
2018-11-26T06:49:08.886Z,93879.91
2018-11-26T06:51:35.532Z,93896.30
2018-11-26T06:54:02.342Z,93893.05
2018-11-26T06:56:28.984Z,93918.56
2018-11-26T06:58:55.631Z,93912.08
2018-11-26T07:01:22.419Z,93896.87
2018-11-26T07:03:49.067Z,93883.50
2018-11-26T07:06:15.727Z,93911.08
2018-11-26T07:08:42.362Z,93883.22
2018-11-26T07:11:09.048Z,93903.47
2018-11-26T07:13:35.757Z,93905.95
2018-11-26T07:16:02.411Z,93895.66
2018-11-26T07:18:29.125Z,93897.20
2018-11-26T07:20:55.768Z,93902.66
2018-11-26T07:23:22.502Z,93893.91
2018-11-26T07:25:49.195Z,93905.05
2018-11-26T07:28:15.846Z,93902.73
2018-11-26T07:30:42.484Z,93899.68
2018-11-26T07:33:09.185Z,93887.56
2018-11-26T07:35:35.840Z,93887.74
2018-11-26T07:38:02.536Z,93859.04
2018-11-26T07:40:29.178Z,93861.44
2018-11-26T07:42:55.838Z,93885.14
2018-11-26T07:45:22.483Z,93874.81
2018-11-26T07:47:49.142Z,93877.44
2018-11-26T07:50:15.803Z,93873.81
2018-11-26T07:52:42.440Z,93864.03
2018-11-26T07:55:10.425Z,93885.27
2018-11-26T07:57:35.803Z,93898.05
2018-11-26T08:00:02.511Z,93886.30
2018-11-26T08:02:29.328Z,93875.14
2018-11-26T08:04:55.976Z,93878.77
2018-11-26T08:07:22.691Z,93894.27
2018-11-26T08:09:49.809Z,93907.33
2018-11-26T08:12:16.918Z,93890.30
2018-11-26T08:14:43.585Z,93880.02
2018-11-26T08:17:10.248Z,93879.23
2018-11-26T08:19:39.240Z,93882.36
2018-11-26T08:22:05.892Z,93910.09
2018-11-26T08:24:32.527Z,93913.20
2018-11-26T08:26:59.218Z,93917.09
2018-11-26T08:29:25.963Z,93911.19
2018-11-26T08:31:52.656Z,93910.70
2018-11-26T08:34:20.349Z,93901.61
2018-11-26T08:36:47.059Z,93894.30
2018-11-26T08:39:13.747Z,93921.03
2018-11-26T08:41:40.392Z,93896.55
2018-11-26T08:44:09.573Z,93890.74
2018-11-26T08:46:33.712Z,93901.83
2018-11-26T08:49:00.361Z,93895.47
2018-11-26T08:51:27.042Z,93889.14
2018-11-26T08:53:53.762Z,93881.52
2018-11-26T08:56:20.485Z,93896.49
2018-11-26T08:58:47.130Z,93886.95
2018-11-26T09:01:13.808Z,93883.91
2018-11-26T09:03:40.478Z,93873.11
2018-11-26T09:06:08.250Z,93879.58
2018-11-26T09:08:34.908Z,93891.70
2018-11-26T09:11:01.579Z,93875.36
2018-11-26T09:13:28.236Z,93851.98
2018-11-26T09:15:54.980Z,93853.73
2018-11-26T09:18:21.628Z,93849.72
2018-11-26T09:20:48.337Z,93869.99
2018-11-26T09:23:15.018Z,93843.77
2018-11-26T09:25:41.668Z,93844.86
2018-11-26T09:28:08.316Z,93846.39
2018-11-26T09:30:34.996Z,93830.99
2018-11-26T09:33:01.732Z,93823.59
2018-11-26T09:35:28.449Z,93817.13
2018-11-26T09:37:55.096Z,93828.69
2018-11-26T09:40:21.734Z,93818.14
2018-11-26T09:42:48.390Z,93819.19
2018-11-26T09:45:16.075Z,93829.23
2018-11-26T09:47:42.949Z,93819.77
2018-11-26T09:50:09.669Z,93820.09
2018-11-26T09:52:36.318Z,93812.69
2018-11-26T09:55:02.967Z,93818.45
2018-11-26T09:57:29.630Z,93812.12
2018-11-26T09:59:56.270Z,93799.52
2018-11-26T10:02:22.965Z,93821.88
2018-11-26T10:04:49.737Z,93818.25
2018-11-26T10:07:16.434Z,93781.14
2018-11-26T10:09:43.070Z,93779.42
2018-11-26T10:12:09.712Z,93785.00
2018-11-26T10:14:36.415Z,93802.41
2018-11-26T10:17:03.100Z,93796.88
2018-11-26T10:19:29.752Z,93771.16
2018-11-26T10:21:56.392Z,93785.00
2018-11-26T10:24:23.114Z,93790.59
2018-11-26T10:26:49.749Z,93784.55
2018-11-26T10:29:18.061Z,93758.95
2018-11-26T10:31:43.057Z,93749.20
2018-11-26T10:34:09.705Z,93746.88
2018-11-26T10:36:36.351Z,93746.83
2018-11-26T10:39:03.062Z,93739.48
2018-11-26T10:41:29.766Z,93738.30
2018-11-26T10:43:56.408Z,93737.93
2018-11-26T10:46:23.114Z,93726.88
2018-11-26T10:48:49.854Z,93729.71
2018-11-26T10:51:16.536Z,93750.19
2018-11-26T10:53:43.193Z,93726.42
2018-11-26T10:56:09.902Z,93732.47
2018-11-26T10:58:36.553Z,93739.40
2018-11-26T11:01:03.313Z,93734.92
2018-11-26T11:03:29.958Z,93730.36
2018-11-26T11:05:56.668Z,93750.38
2018-11-26T11:08:23.846Z,93740.47
2018-11-26T11:10:50.006Z,93736.15
2018-11-26T11:13:16.644Z,93723.08
2018-11-26T11:15:43.340Z,93739.92
2018-11-26T11:18:09.977Z,93710.79
2018-11-26T11:20:36.619Z,93727.55
2018-11-26T11:23:03.444Z,93725.55
2018-11-26T11:25:30.290Z,93720.50
2018-11-26T11:27:56.983Z,93738.77
2018-11-26T11:30:23.653Z,93722.25
2018-11-26T11:32:50.539Z,93707.85
2018-11-26T11:35:17.180Z,93713.81
2018-11-26T11:37:43.833Z,93715.04
2018-11-26T11:40:10.511Z,93700.25
2018-11-26T11:42:37.178Z,93687.07
2018-11-26T11:45:03.926Z,93679.52
2018-11-26T11:47:30.741Z,93684.03
2018-11-26T11:49:57.442Z,93664.12
2018-11-26T11:52:24.202Z,93684.77
2018-11-26T11:54:50.898Z,93692.75
2018-11-26T11:57:17.698Z,93693.08
2018-11-26T11:59:44.352Z,93681.48
2018-11-26T12:02:16.029Z,93674.19
2018-11-26T12:04:38.830Z,93675.02
2018-11-26T12:07:05.494Z,93663.39
2018-11-26T12:09:32.193Z,93665.54
2018-11-26T12:11:58.844Z,93673.13
2018-11-26T12:14:25.611Z,93672.73
2018-11-26T12:16:52.324Z,93676.00
2018-11-26T12:19:18.999Z,93685.91
2018-11-26T12:21:45.807Z,93677.77
2018-11-26T12:24:12.537Z,93679.30
2018-11-26T12:26:39.182Z,93673.77
2018-11-26T12:29:05.885Z,93657.30
2018-11-26T12:31:32.523Z,93648.69
2018-11-26T12:34:02.168Z,93652.74
2018-11-26T12:36:28.839Z,93660.42
2018-11-26T12:38:55.478Z,93650.27
2018-11-26T12:41:22.208Z,93646.17
2018-11-26T12:43:48.850Z,93661.48
2018-11-26T12:46:15.561Z,93657.44
2018-11-26T12:48:42.237Z,93646.00
2018-11-26T12:51:11.399Z,93633.11
2018-11-26T12:53:38.124Z,93634.03
2018-11-26T12:56:04.775Z,93631.11
2018-11-26T12:58:31.518Z,93621.48
2018-11-26T13:00:58.192Z,93612.84
2018-11-26T13:03:24.882Z,93608.72
2018-11-26T13:05:51.530Z,93599.95
2018-11-26T13:08:18.187Z,93600.55
2018-11-26T13:10:44.869Z,93605.97
2018-11-26T13:13:11.521Z,93594.59
2018-11-26T13:15:38.303Z,93600.50
2018-11-26T13:18:04.984Z,93600.08
2018-11-26T13:20:31.767Z,93595.61
2018-11-26T13:22:58.477Z,93603.71
2018-11-26T13:25:25.258Z,93591.23
2018-11-26T13:27:52.080Z,93600.56
2018-11-26T13:30:18.822Z,93599.64
2018-11-26T13:32:45.565Z,93604.27
2018-11-26T13:35:12.220Z,93606.82
2018-11-26T13:37:38.907Z,93622.78
2018-11-26T13:40:05.613Z,93638.14
2018-11-26T13:42:35.091Z,93638.31
2018-11-26T13:45:01.800Z,93636.40
2018-11-26T13:47:28.499Z,93623.75
2018-11-26T13:49:55.952Z,93635.34
2018-11-26T13:52:22.590Z,93644.52
2018-11-26T13:54:49.721Z,93643.87
2018-11-26T13:57:16.433Z,93642.84
2018-11-26T13:59:43.115Z,93638.18
2018-11-26T14:02:09.770Z,93644.05
2018-11-26T14:04:38.624Z,93631.08
2018-11-26T14:07:05.280Z,93647.73
2018-11-26T14:09:31.982Z,93656.98
2018-11-26T14:11:58.625Z,93648.23
2018-11-26T14:14:25.290Z,93644.31
2018-11-26T14:16:51.950Z,93636.95
2018-11-26T14:19:18.695Z,93643.86
2018-11-26T14:21:45.480Z,93653.77
2018-11-26T14:24:12.196Z,93659.56
2018-11-26T14:26:38.960Z,93672.88
2018-11-26T14:29:06.116Z,93678.97
2018-11-26T14:31:32.849Z,93677.09
2018-11-26T14:34:01.953Z,93672.36
2018-11-26T14:36:28.664Z,93670.46
2018-11-26T14:38:55.389Z,93667.95
2018-11-26T14:41:22.165Z,93666.36
2018-11-26T14:43:48.924Z,93663.95
2018-11-26T14:46:15.580Z,93668.56
2018-11-26T14:48:42.279Z,93676.83
2018-11-26T14:51:08.921Z,93666.79
2018-11-26T14:53:35.647Z,93663.62
2018-11-26T14:56:02.345Z,93657.67
2018-11-26T14:58:29.019Z,93653.98
2018-11-26T15:00:55.702Z,93643.24
2018-11-26T15:03:22.358Z,93643.29
2018-11-26T15:05:49.017Z,93639.91
2018-11-26T15:08:15.691Z,93632.89
2018-11-26T15:10:42.384Z,93631.30
2018-11-26T15:13:09.113Z,93638.84
2018-11-26T15:15:36.386Z,93652.59
2018-11-26T15:18:04.092Z,93655.62
2018-11-26T15:20:30.746Z,93646.88
2018-11-26T15:22:57.484Z,93650.00
2018-11-26T15:25:24.153Z,93657.56
2018-11-26T15:27:51.314Z,93661.42
2018-11-26T15:30:17.962Z,93666.83
2018-11-26T15:32:44.658Z,93663.52
2018-11-26T15:35:11.491Z,93668.80
2018-11-26T15:37:38.818Z,93673.73
2018-11-26T15:40:05.493Z,93672.10
2018-11-26T15:42:32.156Z,93674.21
2018-11-26T15:44:58.870Z,93676.52
2018-11-26T15:47:25.532Z,93681.50
2018-11-26T15:49:52.227Z,93675.17
2018-11-26T15:52:18.890Z,93672.67
2018-11-26T15:54:46.582Z,93660.63
2018-11-26T15:57:12.640Z,93665.83
2018-11-26T15:59:39.384Z,93675.39
2018-11-26T16:02:06.014Z,93674.32
2018-11-26T16:04:32.660Z,93677.17
2018-11-26T16:06:59.317Z,93679.64
2018-11-26T16:09:26.134Z,93693.30
2018-11-26T16:11:52.812Z,93694.67
2018-11-26T16:14:19.544Z,93690.81
2018-11-26T16:16:46.181Z,93685.42
2018-11-26T16:19:12.823Z,93696.48
2018-11-26T16:21:39.492Z,93702.83
2018-11-26T16:24:06.135Z,93700.39
2018-11-26T16:26:32.797Z,93698.06
2018-11-26T16:29:00.285Z,93718.36
2018-11-26T16:31:26.998Z,93704.02
2018-11-26T16:33:53.672Z,93704.82
2018-11-26T16:36:20.378Z,93696.55
2018-11-26T16:38:47.020Z,93698.60
2018-11-26T16:41:13.676Z,93708.02
2018-11-26T16:43:40.326Z,93712.33
2018-11-26T16:46:07.030Z,93715.83
2018-11-26T16:48:33.749Z,93718.06
2018-11-26T16:51:00.510Z,93721.72
2018-11-26T16:53:27.167Z,93717.66
2018-11-26T16:55:53.823Z,93723.30
2018-11-26T16:58:20.501Z,93728.59
2018-11-26T17:00:47.163Z,93728.19
2018-11-26T17:03:13.848Z,93728.06
2018-11-26T17:05:40.505Z,93722.70
2018-11-26T17:08:07.152Z,93723.80
2018-11-26T17:10:33.872Z,93722.46
2018-11-26T17:13:01.863Z,93719.15
2018-11-26T17:15:27.163Z,93720.70
2018-11-26T17:17:56.648Z,93726.86
2018-11-26T17:20:23.340Z,93729.77
2018-11-26T17:22:50.005Z,93726.58
2018-11-26T17:25:16.651Z,93723.42
2018-11-26T17:27:43.376Z,93729.02
2018-11-26T17:30:10.052Z,93730.85
2018-11-26T17:32:36.706Z,93726.39
2018-11-26T17:35:03.372Z,93724.25
2018-11-26T17:37:30.019Z,93729.30
2018-11-26T17:39:56.663Z,93727.91
2018-11-26T17:42:23.383Z,93719.70
2018-11-26T17:44:50.035Z,93736.55
2018-11-26T17:47:16.694Z,93731.56
2018-11-26T17:49:43.348Z,93727.23
2018-11-26T17:52:10.056Z,93734.69
2018-11-26T17:54:36.724Z,93740.20
2018-11-26T17:57:03.365Z,93733.36
2018-11-26T17:59:30.102Z,93740.77
2018-11-26T18:01:56.739Z,93737.60
2018-11-26T18:04:23.379Z,93733.66
2018-11-26T18:06:50.050Z,93742.18
2018-11-26T18:09:16.724Z,93743.95
2018-11-26T18:11:43.365Z,93741.00
2018-11-26T18:14:10.083Z,93745.25
2018-11-26T18:16:36.718Z,93744.75
2018-11-26T18:19:03.451Z,93738.77
2018-11-26T18:21:30.102Z,93741.68
2018-11-26T18:23:56.769Z,93745.00
2018-11-26T18:26:23.415Z,93741.75
2018-11-26T18:28:50.078Z,93740.79
2018-11-26T18:31:16.779Z,93736.73
2018-11-26T18:33:43.439Z,93736.73
2018-11-26T18:36:10.130Z,93732.33
2018-11-26T18:38:36.880Z,93726.75
2018-11-26T18:41:03.576Z,93730.32
2018-11-26T18:43:30.219Z,93729.20
2018-11-26T18:45:56.991Z,93727.09
2018-11-26T18:48:23.693Z,93730.94
2018-11-26T18:50:50.347Z,93735.27
2018-11-26T18:53:17.049Z,93739.08
2018-11-26T18:55:43.748Z,93747.81
2018-11-26T18:58:10.418Z,93753.17
2018-11-26T19:00:37.055Z,93759.33
2018-11-26T19:03:03.757Z,93762.20
2018-11-26T19:05:30.427Z,93775.48
2018-11-26T19:07:57.062Z,93785.42
2018-11-26T19:10:23.720Z,93772.23
2018-11-26T19:12:50.348Z,93762.23
2018-11-26T19:15:17.164Z,93763.81
2018-11-26T19:17:44.462Z,93779.33
2018-11-26T19:20:11.106Z,93773.13
2018-11-26T19:22:37.785Z,93781.20
2018-11-26T19:25:04.433Z,93780.09
2018-11-26T19:27:31.077Z,93782.27
2018-11-26T19:29:57.722Z,93781.09
2018-11-26T19:32:24.377Z,93764.52
2018-11-26T19:34:51.086Z,93787.05
2018-11-26T19:37:17.738Z,93793.47
2018-11-26T19:39:44.394Z,93791.88
2018-11-26T19:42:11.044Z,93801.17
2018-11-26T19:44:37.718Z,93800.23
2018-11-26T19:47:04.436Z,93798.29
2018-11-26T19:49:31.086Z,93802.21
2018-11-26T19:51:57.741Z,93808.08
2018-11-26T19:54:24.390Z,93813.17
2018-11-26T19:56:51.059Z,93807.59
2018-11-26T19:59:17.801Z,93807.61
2018-11-26T20:01:44.529Z,93800.12
2018-11-26T20:04:11.170Z,93795.66
2018-11-26T20:06:37.826Z,93792.97
2018-11-26T20:09:04.527Z,93797.23
2018-11-26T20:11:33.314Z,93801.05
2018-11-26T20:13:57.920Z,93795.98
2018-11-26T20:16:24.627Z,93794.59
2018-11-26T20:18:51.289Z,93794.30
2018-11-26T20:21:17.997Z,93800.98
2018-11-26T20:23:44.657Z,93807.22
2018-11-26T20:26:11.310Z,93804.61
2018-11-26T20:28:37.963Z,93809.91
2018-11-26T20:31:04.717Z,93814.25
2018-11-26T20:33:31.365Z,93815.11
2018-11-26T20:35:58.003Z,93808.89
2018-11-26T20:38:24.660Z,93812.70
2018-11-26T20:40:51.304Z,93809.75
2018-11-26T20:43:18.981Z,93803.31
2018-11-26T20:45:45.639Z,93806.40
2018-11-26T20:48:12.313Z,93813.09
2018-11-26T20:50:39.084Z,93818.86
2018-11-26T20:53:05.729Z,93812.16
2018-11-26T20:55:32.386Z,93816.00
2018-11-26T20:57:59.042Z,93818.56
2018-11-26T21:00:25.686Z,93815.14
2018-11-26T21:02:52.371Z,93815.77
2018-11-26T21:05:19.010Z,93813.31
2018-11-26T21:07:45.673Z,93809.39
2018-11-26T21:10:12.324Z,93806.34
2018-11-26T21:12:38.989Z,93806.70
2018-11-26T21:15:05.651Z,93810.80
2018-11-26T21:17:32.328Z,93797.80
2018-11-26T21:19:58.971Z,93801.69
2018-11-26T21:22:25.684Z,93804.59
2018-11-26T21:24:52.318Z,93809.33
2018-11-26T21:27:18.953Z,93807.66
2018-11-26T21:29:48.380Z,93796.43
2018-11-26T21:32:15.025Z,93799.20
2018-11-26T21:34:41.683Z,93803.95
2018-11-26T21:37:08.321Z,93812.47
2018-11-26T21:39:35.009Z,93814.72
2018-11-26T21:42:01.677Z,93825.92
2018-11-26T21:44:28.312Z,93821.96
2018-11-26T21:46:54.958Z,93824.11
2018-11-26T21:49:21.622Z,93830.95
2018-11-26T21:51:48.266Z,93829.83
2018-11-26T21:54:15.046Z,93824.48
2018-11-26T21:56:41.685Z,93830.22
2018-11-26T21:59:08.322Z,93838.02
2018-11-26T22:01:34.973Z,93838.93
2018-11-26T22:04:01.617Z,93842.84
2018-11-26T22:06:28.264Z,93843.22
2018-11-26T22:08:54.916Z,93836.71
2018-11-26T22:11:21.567Z,93842.28
2018-11-26T22:13:48.275Z,93847.84
2018-11-26T22:16:15.205Z,93850.47
2018-11-26T22:18:41.855Z,93847.69
2018-11-26T22:21:08.504Z,93848.80
2018-11-26T22:23:35.160Z,93849.06
2018-11-26T22:26:01.817Z,93864.02
2018-11-26T22:28:28.476Z,93858.55
2018-11-26T22:30:55.121Z,93864.48
2018-11-26T22:33:21.770Z,93869.23
2018-11-26T22:35:48.410Z,93870.97
2018-11-26T22:38:15.170Z,93876.91
2018-11-26T22:40:41.819Z,93872.11
2018-11-26T22:43:08.474Z,93881.92
2018-11-26T22:45:35.115Z,93887.57
2018-11-26T22:48:01.759Z,93896.02
2018-11-26T22:50:28.413Z,93904.37
2018-11-26T22:52:55.156Z,93917.17
2018-11-26T22:55:22.540Z,93915.88
2018-11-26T22:57:48.443Z,93918.36
2018-11-26T23:00:15.099Z,93926.91
2018-11-26T23:02:41.744Z,93932.94
2018-11-26T23:05:08.413Z,93927.82
2018-11-26T23:07:35.052Z,93937.57
2018-11-26T23:10:01.693Z,93936.81
2018-11-26T23:12:28.337Z,93946.11
2018-11-26T23:14:54.996Z,93949.27
2018-11-26T23:17:21.637Z,93954.47
2018-11-26T23:19:48.305Z,93948.52
2018-11-26T23:22:14.948Z,93951.38
2018-11-26T23:24:41.649Z,93967.54
2018-11-26T23:27:08.295Z,93966.25
2018-11-26T23:29:34.927Z,93974.97
2018-11-26T23:32:01.591Z,93980.45
2018-11-26T23:34:28.286Z,93981.29
2018-11-26T23:36:54.948Z,93975.25
2018-11-26T23:39:21.589Z,93983.97
2018-11-26T23:41:48.232Z,93977.02
2018-11-26T23:44:14.891Z,93967.92
2018-11-26T23:46:41.545Z,93960.41
2018-11-26T23:49:08.201Z,93969.52
2018-11-26T23:51:34.847Z,93977.12
2018-11-26T23:54:01.491Z,93979.25
2018-11-26T23:56:28.140Z,93978.20
2018-11-26T23:58:54.793Z,93973.69
